sensor_id;sensor_type;location;lat;lon;timestamp;pressure;altitude;pressure_sealevel;temperature;humidity
9774;BME280;4926;42.670;23.316;2023-03-18T00:00:26;94946.41;;;4.01;93.58
9774;BME280;4926;42.670;23.316;2023-03-18T00:02:52;94943.88;;;4.06;93.44
9774;BME280;4926;42.670;23.316;2023-03-18T00:05:19;94941.25;;;4.06;93.13
9774;BME280;4926;42.670;23.316;2023-03-18T00:07:46;94936.41;;;4.14;93.43
9774;BME280;4926;42.670;23.316;2023-03-18T00:10:13;94934.47;;;4.10;93.56
9774;BME280;4926;42.670;23.316;2023-03-18T00:12:44;94926.31;;;4.11;92.82
9774;BME280;4926;42.670;23.316;2023-03-18T00:15:15;94921.94;;;4.00;93.81
9774;BME280;4926;42.670;23.316;2023-03-18T00:17:47;94931.56;;;3.95;93.75
9774;BME280;4926;42.670;23.316;2023-03-18T00:20:15;94921.97;;;3.89;93.46
9774;BME280;4926;42.670;23.316;2023-03-18T00:22:43;94920.94;;;3.62;95.23
9774;BME280;4926;42.670;23.316;2023-03-18T00:25:12;94919.66;;;3.64;96.76
9774;BME280;4926;42.670;23.316;2023-03-18T00:27:39;94921.91;;;3.44;97.78
9774;BME280;4926;42.670;23.316;2023-03-18T00:30:07;94921.31;;;3.02;100.00
9774;BME280;4926;42.670;23.316;2023-03-18T00:32:35;94910.38;;;2.71;100.00
9774;BME280;4926;42.670;23.316;2023-03-18T00:35:03;94912.66;;;2.44;100.00
9774;BME280;4926;42.670;23.316;2023-03-18T00:37:33;94906.69;;;2.14;100.00
9774;BME280;4926;42.670;23.316;2023-03-18T00:40:05;94895.25;;;1.97;100.00
9774;BME280;4926;42.670;23.316;2023-03-18T00:42:33;94896.34;;;1.89;100.00
9774;BME280;4926;42.670;23.316;2023-03-18T00:45:04;94885.84;;;1.78;100.00
9774;BME280;4926;42.670;23.316;2023-03-18T00:47:32;94898.97;;;1.89;100.00
9774;BME280;4926;42.670;23.316;2023-03-18T00:50:05;94894.19;;;1.86;100.00
9774;BME280;4926;42.670;23.316;2023-03-18T00:52:33;94891.09;;;1.78;100.00
9774;BME280;4926;42.670;23.316;2023-03-18T00:55:02;94890.28;;;1.77;100.00
9774;BME280;4926;42.670;23.316;2023-03-18T00:57:29;94880.00;;;1.76;100.00
9774;BME280;4926;42.670;23.316;2023-03-18T00:59:57;94881.25;;;1.73;100.00
9774;BME280;4926;42.670;23.316;2023-03-18T01:02:24;94874.28;;;1.67;100.00
9774;BME280;4926;42.670;23.316;2023-03-18T01:04:51;94875.88;;;1.68;100.00
9774;BME280;4926;42.670;23.316;2023-03-18T01:07:24;94875.34;;;1.78;100.00
9774;BME280;4926;42.670;23.316;2023-03-18T01:09:54;94872.38;;;1.74;100.00
9774;BME280;4926;42.670;23.316;2023-03-18T01:12:20;94872.03;;;1.71;100.00
9774;BME280;4926;42.670;23.316;2023-03-18T01:14:47;94845.38;;;1.56;100.00
9774;BME280;4926;42.670;23.316;2023-03-18T01:17:19;94875.84;;;1.57;100.00
9774;BME280;4926;42.670;23.316;2023-03-18T01:19:47;94870.22;;;1.42;100.00
9774;BME280;4926;42.670;23.316;2023-03-18T01:22:17;94865.28;;;1.34;100.00
9774;BME280;4926;42.670;23.316;2023-03-18T01:24:45;94866.81;;;1.53;100.00
9774;BME280;4926;42.670;23.316;2023-03-18T01:27:12;94865.63;;;1.67;100.00
9774;BME280;4926;42.670;23.316;2023-03-18T01:29:41;94877.38;;;1.76;100.00
9774;BME280;4926;42.670;23.316;2023-03-18T01:32:10;94860.66;;;2.00;100.00
9774;BME280;4926;42.670;23.316;2023-03-18T01:34:40;94855.31;;;2.18;100.00
9774;BME280;4926;42.670;23.316;2023-03-18T01:37:22;94858.41;;;2.38;100.00
9774;BME280;4926;42.670;23.316;2023-03-18T01:39:55;94857.72;;;2.43;100.00
9774;BME280;4926;42.670;23.316;2023-03-18T01:42:22;94852.94;;;2.51;100.00
9774;BME280;4926;42.670;23.316;2023-03-18T01:45:13;94854.19;;;2.60;100.00
9774;BME280;4926;42.670;23.316;2023-03-18T01:47:42;94855.28;;;2.64;100.00
9774;BME280;4926;42.670;23.316;2023-03-18T01:50:14;94857.72;;;2.66;100.00
9774;BME280;4926;42.670;23.316;2023-03-18T01:52:51;94860.22;;;2.61;100.00
9774;BME280;4926;42.670;23.316;2023-03-18T01:55:27;94859.66;;;2.70;100.00
9774;BME280;4926;42.670;23.316;2023-03-18T01:57:55;94850.94;;;2.81;100.00
9774;BME280;4926;42.670;23.316;2023-03-18T02:00:22;94847.19;;;2.77;100.00
9774;BME280;4926;42.670;23.316;2023-03-18T02:02:56;94845.78;;;2.75;100.00
9774;BME280;4926;42.670;23.316;2023-03-18T02:05:27;94843.63;;;2.83;100.00
9774;BME280;4926;42.670;23.316;2023-03-18T02:07:54;94843.16;;;2.86;100.00
9774;BME280;4926;42.670;23.316;2023-03-18T02:10:24;94843.63;;;2.83;100.00
9774;BME280;4926;42.670;23.316;2023-03-18T02:12:58;94840.06;;;2.89;100.00
9774;BME280;4926;42.670;23.316;2023-03-18T02:15:27;94844.31;;;2.90;100.00
9774;BME280;4926;42.670;23.316;2023-03-18T02:17:58;94844.06;;;2.92;100.00
9774;BME280;4926;42.670;23.316;2023-03-18T02:20:34;94844.66;;;2.94;100.00
9774;BME280;4926;42.670;23.316;2023-03-18T02:23:11;94839.94;;;2.96;100.00
9774;BME280;4926;42.670;23.316;2023-03-18T02:25:48;94837.63;;;2.99;100.00
9774;BME280;4926;42.670;23.316;2023-03-18T02:28:21;94848.63;;;2.96;100.00
9774;BME280;4926;42.670;23.316;2023-03-18T02:30:52;94843.41;;;2.85;100.00
9774;BME280;4926;42.670;23.316;2023-03-18T02:33:21;94817.84;;;2.57;100.00
9774;BME280;4926;42.670;23.316;2023-03-18T02:35:52;94837.56;;;2.71;100.00
9774;BME280;4926;42.670;23.316;2023-03-18T02:38:22;94822.19;;;2.63;100.00
9774;BME280;4926;42.670;23.316;2023-03-18T02:40:48;94840.94;;;2.44;100.00
9774;BME280;4926;42.670;23.316;2023-03-18T02:43:20;94841.63;;;2.39;100.00
9774;BME280;4926;42.670;23.316;2023-03-18T02:46:10;94831.78;;;2.46;100.00
9774;BME280;4926;42.670;23.316;2023-03-18T02:48:40;94835.00;;;2.48;100.00
9774;BME280;4926;42.670;23.316;2023-03-18T02:51:14;94837.84;;;2.58;100.00
9774;BME280;4926;42.670;23.316;2023-03-18T02:53:42;94835.69;;;2.55;100.00
9774;BME280;4926;42.670;23.316;2023-03-18T02:56:09;94841.63;;;2.62;100.00
9774;BME280;4926;42.670;23.316;2023-03-18T02:58:38;94841.25;;;2.70;100.00
9774;BME280;4926;42.670;23.316;2023-03-18T03:01:06;94834.50;;;2.74;100.00
9774;BME280;4926;42.670;23.316;2023-03-18T03:03:33;94831.97;;;2.79;100.00
9774;BME280;4926;42.670;23.316;2023-03-18T03:06:00;94832.22;;;2.78;100.00
9774;BME280;4926;42.670;23.316;2023-03-18T03:08:27;94837.25;;;2.79;100.00
9774;BME280;4926;42.670;23.316;2023-03-18T03:10:55;94835.41;;;2.80;100.00
9774;BME280;4926;42.670;23.316;2023-03-18T03:13:22;94842.03;;;2.82;100.00
9774;BME280;4926;42.670;23.316;2023-03-18T03:15:50;94840.44;;;2.81;100.00
9774;BME280;4926;42.670;23.316;2023-03-18T03:18:18;94839.09;;;2.67;100.00
9774;BME280;4926;42.670;23.316;2023-03-18T03:20:46;94845.47;;;2.60;100.00
9774;BME280;4926;42.670;23.316;2023-03-18T03:23:14;94843.22;;;2.40;100.00
9774;BME280;4926;42.670;23.316;2023-03-18T03:25:43;94846.75;;;2.22;100.00
9774;BME280;4926;42.670;23.316;2023-03-18T03:28:11;94843.91;;;2.12;100.00
9774;BME280;4926;42.670;23.316;2023-03-18T03:30:38;94858.97;;;2.17;100.00
9774;BME280;4926;42.670;23.316;2023-03-18T03:33:07;94851.78;;;2.12;100.00
9774;BME280;4926;42.670;23.316;2023-03-18T03:35:34;94846.53;;;2.12;100.00
9774;BME280;4926;42.670;23.316;2023-03-18T03:38:01;94848.56;;;2.10;100.00
9774;BME280;4926;42.670;23.316;2023-03-18T03:40:29;94854.75;;;2.04;100.00
9774;BME280;4926;42.670;23.316;2023-03-18T03:42:56;94855.09;;;2.08;100.00
9774;BME280;4926;42.670;23.316;2023-03-18T03:45:26;94850.97;;;2.12;100.00
9774;BME280;4926;42.670;23.316;2023-03-18T03:47:53;94858.16;;;2.05;100.00
9774;BME280;4926;42.670;23.316;2023-03-18T03:50:21;94860.53;;;1.95;100.00
9774;BME280;4926;42.670;23.316;2023-03-18T03:52:48;94861.66;;;1.87;100.00
9774;BME280;4926;42.670;23.316;2023-03-18T03:55:17;94858.97;;;1.94;100.00
9774;BME280;4926;42.670;23.316;2023-03-18T03:57:45;94860.66;;;2.00;100.00
9774;BME280;4926;42.670;23.316;2023-03-18T04:00:13;94863.63;;;2.03;100.00
9774;BME280;4926;42.670;23.316;2023-03-18T04:02:42;94854.28;;;2.07;100.00
9774;BME280;4926;42.670;23.316;2023-03-18T04:05:10;94862.75;;;2.09;100.00
9774;BME280;4926;42.670;23.316;2023-03-18T04:07:39;94865.72;;;2.13;100.00
9774;BME280;4926;42.670;23.316;2023-03-18T04:10:08;94863.50;;;2.10;100.00
9774;BME280;4926;42.670;23.316;2023-03-18T04:12:35;94855.75;;;2.03;100.00
9774;BME280;4926;42.670;23.316;2023-03-18T04:15:08;94865.25;;;2.04;100.00
9774;BME280;4926;42.670;23.316;2023-03-18T04:17:38;94872.31;;;1.92;100.00
9774;BME280;4926;42.670;23.316;2023-03-18T04:20:05;94866.34;;;1.85;100.00
9774;BME280;4926;42.670;23.316;2023-03-18T04:22:33;94879.44;;;1.74;100.00
9774;BME280;4926;42.670;23.316;2023-03-18T04:25:04;94890.56;;;1.58;100.00
9774;BME280;4926;42.670;23.316;2023-03-18T04:27:31;94888.72;;;1.47;100.00
9774;BME280;4926;42.670;23.316;2023-03-18T04:29:58;94891.97;;;1.42;100.00
9774;BME280;4926;42.670;23.316;2023-03-18T04:32:27;94895.72;;;1.35;100.00
9774;BME280;4926;42.670;23.316;2023-03-18T04:34:54;94907.09;;;1.29;100.00
9774;BME280;4926;42.670;23.316;2023-03-18T04:37:20;94906.47;;;1.15;100.00
9774;BME280;4926;42.670;23.316;2023-03-18T04:39:48;94896.06;;;0.90;100.00
9774;BME280;4926;42.670;23.316;2023-03-18T04:42:16;94902.13;;;0.91;100.00
9774;BME280;4926;42.670;23.316;2023-03-18T04:44:44;94904.56;;;0.86;100.00
9774;BME280;4926;42.670;23.316;2023-03-18T04:47:10;94906.09;;;0.75;100.00
9774;BME280;4926;42.670;23.316;2023-03-18T04:49:38;94913.94;;;0.75;100.00
9774;BME280;4926;42.670;23.316;2023-03-18T04:52:05;94910.19;;;0.71;100.00
9774;BME280;4926;42.670;23.316;2023-03-18T04:54:32;94909.38;;;0.71;100.00
9774;BME280;4926;42.670;23.316;2023-03-18T04:57:01;94914.97;;;0.74;100.00
9774;BME280;4926;42.670;23.316;2023-03-18T04:59:31;94912.06;;;0.64;100.00
9774;BME280;4926;42.670;23.316;2023-03-18T05:01:58;94916.44;;;0.46;100.00
9774;BME280;4926;42.670;23.316;2023-03-18T05:04:25;94910.81;;;0.49;100.00
9774;BME280;4926;42.670;23.316;2023-03-18T05:06:53;94910.69;;;0.37;100.00
9774;BME280;4926;42.670;23.316;2023-03-18T05:09:25;94912.91;;;0.40;100.00
9774;BME280;4926;42.670;23.316;2023-03-18T05:11:52;94904.13;;;0.28;100.00
9774;BME280;4926;42.670;23.316;2023-03-18T05:14:21;94908.63;;;0.21;100.00
9774;BME280;4926;42.670;23.316;2023-03-18T05:16:49;94909.53;;;0.33;100.00
9774;BME280;4926;42.670;23.316;2023-03-18T05:19:17;94904.88;;;0.35;100.00
9774;BME280;4926;42.670;23.316;2023-03-18T05:21:44;94904.84;;;0.42;100.00
9774;BME280;4926;42.670;23.316;2023-03-18T05:24:11;94899.00;;;0.58;100.00
9774;BME280;4926;42.670;23.316;2023-03-18T05:26:37;94904.56;;;0.68;100.00
9774;BME280;4926;42.670;23.316;2023-03-18T05:29:04;94903.47;;;0.75;100.00
9774;BME280;4926;42.670;23.316;2023-03-18T05:31:31;94903.13;;;0.90;100.00
9774;BME280;4926;42.670;23.316;2023-03-18T05:33:59;94896.66;;;0.92;100.00
9774;BME280;4926;42.670;23.316;2023-03-18T05:36:26;94897.78;;;0.96;100.00
9774;BME280;4926;42.670;23.316;2023-03-18T05:38:54;94899.25;;;1.10;100.00
9774;BME280;4926;42.670;23.316;2023-03-18T05:41:20;94891.50;;;1.15;100.00
9774;BME280;4926;42.670;23.316;2023-03-18T05:43:47;94898.84;;;1.43;100.00
9774;BME280;4926;42.670;23.316;2023-03-18T05:46:15;94905.41;;;1.64;100.00
9774;BME280;4926;42.670;23.316;2023-03-18T05:48:42;94911.31;;;1.89;100.00
9774;BME280;4926;42.670;23.316;2023-03-18T05:51:10;94905.97;;;2.07;100.00
9774;BME280;4926;42.670;23.316;2023-03-18T05:53:37;94911.03;;;2.20;100.00
9774;BME280;4926;42.670;23.316;2023-03-18T05:56:04;94912.31;;;2.29;100.00
9774;BME280;4926;42.670;23.316;2023-03-18T05:58:31;94922.44;;;2.14;100.00
9774;BME280;4926;42.670;23.316;2023-03-18T06:00:59;94925.94;;;1.96;100.00
9774;BME280;4926;42.670;23.316;2023-03-18T06:03:26;94929.69;;;1.89;100.00
9774;BME280;4926;42.670;23.316;2023-03-18T06:05:54;94929.13;;;1.87;100.00
9774;BME280;4926;42.670;23.316;2023-03-18T06:08:22;94932.63;;;1.81;100.00
9774;BME280;4926;42.670;23.316;2023-03-18T06:10:49;94934.25;;;1.82;100.00
9774;BME280;4926;42.670;23.316;2023-03-18T06:13:19;94936.81;;;1.70;100.00
9774;BME280;4926;42.670;23.316;2023-03-18T06:15:46;94936.56;;;1.72;100.00
9774;BME280;4926;42.670;23.316;2023-03-18T06:18:16;94937.78;;;1.87;100.00
9774;BME280;4926;42.670;23.316;2023-03-18T06:20:43;94934.63;;;1.97;100.00
9774;BME280;4926;42.670;23.316;2023-03-18T06:23:09;94936.16;;;2.16;100.00
9774;BME280;4926;42.670;23.316;2023-03-18T06:25:37;94937.41;;;2.25;100.00
9774;BME280;4926;42.670;23.316;2023-03-18T06:28:05;94930.13;;;2.27;100.00
9774;BME280;4926;42.670;23.316;2023-03-18T06:30:32;94923.63;;;2.41;100.00
9774;BME280;4926;42.670;23.316;2023-03-18T06:32:59;94919.41;;;2.63;100.00
9774;BME280;4926;42.670;23.316;2023-03-18T06:35:26;94924.53;;;3.04;100.00
9774;BME280;4926;42.670;23.316;2023-03-18T06:37:53;94922.34;;;3.53;100.00
9774;BME280;4926;42.670;23.316;2023-03-18T06:40:20;94911.91;;;3.86;100.00
9774;BME280;4926;42.670;23.316;2023-03-18T06:42:49;94902.28;;;4.08;97.01
9774;BME280;4926;42.670;23.316;2023-03-18T06:45:16;94902.16;;;4.31;94.95
9774;BME280;4926;42.670;23.316;2023-03-18T06:47:43;94905.41;;;4.71;93.06
9774;BME280;4926;42.670;23.316;2023-03-18T06:50:11;94907.06;;;5.15;92.20
9774;BME280;4926;42.670;23.316;2023-03-18T06:52:38;94900.22;;;5.57;87.59
9774;BME280;4926;42.670;23.316;2023-03-18T06:55:10;94895.88;;;5.95;84.13
9774;BME280;4926;42.670;23.316;2023-03-18T06:57:37;94902.53;;;6.29;82.85
9774;BME280;4926;42.670;23.316;2023-03-18T07:00:07;94878.44;;;6.57;79.38
9774;BME280;4926;42.670;23.316;2023-03-18T07:02:34;94883.22;;;6.60;77.52
9774;BME280;4926;42.670;23.316;2023-03-18T07:05:02;94888.00;;;6.00;77.68
9774;BME280;4926;42.670;23.316;2023-03-18T07:07:31;94881.03;;;5.67;79.06
9774;BME280;4926;42.670;23.316;2023-03-18T07:09:58;94898.75;;;6.20;78.00
9774;BME280;4926;42.670;23.316;2023-03-18T07:12:24;94891.84;;;6.14;77.57
9774;BME280;4926;42.670;23.316;2023-03-18T07:14:52;94891.63;;;5.94;77.85
9774;BME280;4926;42.670;23.316;2023-03-18T07:17:24;94885.78;;;6.50;77.15
9774;BME280;4926;42.670;23.316;2023-03-18T07:19:51;94876.97;;;6.76;74.16
9774;BME280;4926;42.670;23.316;2023-03-18T07:22:17;94878.13;;;6.90;73.60
9774;BME280;4926;42.670;23.316;2023-03-18T07:24:47;94884.50;;;6.94;72.80
9774;BME280;4926;42.670;23.316;2023-03-18T07:27:14;94873.72;;;7.06;71.83
9774;BME280;4926;42.670;23.316;2023-03-18T07:29:41;94869.34;;;6.85;72.81
9774;BME280;4926;42.670;23.316;2023-03-18T07:32:08;94877.31;;;7.36;71.41
9774;BME280;4926;42.670;23.316;2023-03-18T07:34:36;94874.28;;;7.74;70.19
9774;BME280;4926;42.670;23.316;2023-03-18T07:37:03;94867.44;;;8.14;68.06
9774;BME280;4926;42.670;23.316;2023-03-18T07:39:36;94870.53;;;7.65;67.32
9774;BME280;4926;42.670;23.316;2023-03-18T07:42:04;94882.63;;;6.90;70.83
9774;BME280;4926;42.670;23.316;2023-03-18T07:44:34;94894.72;;;7.17;71.02
9774;BME280;4926;42.670;23.316;2023-03-18T07:47:10;94891.38;;;6.95;70.89
9774;BME280;4926;42.670;23.316;2023-03-18T07:49:40;94888.13;;;6.83;71.43
9774;BME280;4926;42.670;23.316;2023-03-18T07:52:08;94878.34;;;7.30;71.07
9774;BME280;4926;42.670;23.316;2023-03-18T07:54:35;94883.00;;;7.75;69.44
9774;BME280;4926;42.670;23.316;2023-03-18T07:57:02;94881.44;;;7.89;69.33
9774;BME280;4926;42.670;23.316;2023-03-18T07:59:29;94873.84;;;8.58;66.33
9774;BME280;4926;42.670;23.316;2023-03-18T08:01:58;94861.34;;;8.83;64.05
9774;BME280;4926;42.670;23.316;2023-03-18T08:04:25;94865.53;;;9.20;63.29
9774;BME280;4926;42.670;23.316;2023-03-18T08:06:57;94865.28;;;9.16;63.10
9774;BME280;4926;42.670;23.316;2023-03-18T08:09:24;94859.16;;;9.21;62.73
9774;BME280;4926;42.670;23.316;2023-03-18T08:11:52;94853.91;;;9.74;61.68
9774;BME280;4926;42.670;23.316;2023-03-18T08:14:18;94840.69;;;10.03;59.43
9774;BME280;4926;42.670;23.316;2023-03-18T08:16:45;94836.19;;;10.42;58.32
9774;BME280;4926;42.670;23.316;2023-03-18T08:19:12;94822.50;;;10.20;57.83
9774;BME280;4926;42.670;23.316;2023-03-18T08:21:41;94832.81;;;10.60;57.03
9774;BME280;4926;42.670;23.316;2023-03-18T08:24:09;94829.97;;;11.09;55.97
9774;BME280;4926;42.670;23.316;2023-03-18T08:26:41;94822.47;;;11.35;54.09
9774;BME280;4926;42.670;23.316;2023-03-18T08:29:08;94829.91;;;10.62;55.77
9774;BME280;4926;42.670;23.316;2023-03-18T08:31:37;94832.13;;;10.78;55.87
9774;BME280;4926;42.670;23.316;2023-03-18T08:34:07;94827.13;;;10.43;56.28
9774;BME280;4926;42.670;23.316;2023-03-18T08:36:35;94829.91;;;10.62;55.71
9774;BME280;4926;42.670;23.316;2023-03-18T08:39:02;94836.03;;;10.24;56.81
9774;BME280;4926;42.670;23.316;2023-03-18T08:41:31;94840.41;;;10.04;57.77
9774;BME280;4926;42.670;23.316;2023-03-18T08:43:57;94807.91;;;10.18;56.57
9774;BME280;4926;42.670;23.316;2023-03-18T08:46:24;94831.09;;;10.46;55.60
9774;BME280;4926;42.670;23.316;2023-03-18T08:48:51;94831.00;;;10.56;55.86
9774;BME280;4926;42.670;23.316;2023-03-18T08:51:19;94821.88;;;11.19;55.05
9774;BME280;4926;42.670;23.316;2023-03-18T08:53:47;94817.97;;;11.54;53.58
9774;BME280;4926;42.670;23.316;2023-03-18T08:56:14;94817.47;;;11.04;54.00
9774;BME280;4926;42.670;23.316;2023-03-18T08:58:42;94826.22;;;11.10;53.98
9774;BME280;4926;42.670;23.316;2023-03-18T09:01:10;94827.25;;;11.38;53.62
9774;BME280;4926;42.670;23.316;2023-03-18T09:03:37;94814.22;;;11.55;52.04
9774;BME280;4926;42.670;23.316;2023-03-18T09:06:06;94823.53;;;11.34;52.55
9774;BME280;4926;42.670;23.316;2023-03-18T09:08:34;94816.53;;;11.66;52.72
9774;BME280;4926;42.670;23.316;2023-03-18T09:11:01;94806.78;;;12.12;50.79
9774;BME280;4926;42.670;23.316;2023-03-18T09:13:27;94801.97;;;11.96;50.84
9774;BME280;4926;42.670;23.316;2023-03-18T09:15:55;94811.63;;;11.73;50.46
9774;BME280;4926;42.670;23.316;2023-03-18T09:18:22;94800.13;;;12.28;48.77
9774;BME280;4926;42.670;23.316;2023-03-18T09:20:52;94790.00;;;12.76;48.06
9774;BME280;4926;42.670;23.316;2023-03-18T09:23:19;94787.84;;;12.92;47.80
9774;BME280;4926;42.670;23.316;2023-03-18T09:25:46;94768.88;;;13.07;47.01
9774;BME280;4926;42.670;23.316;2023-03-18T09:28:14;94761.69;;;13.70;45.14
9774;BME280;4926;42.670;23.316;2023-03-18T09:30:42;94759.44;;;13.99;44.95
9774;BME280;4926;42.670;23.316;2023-03-18T09:33:10;94758.28;;;14.27;44.96
9774;BME280;4926;42.670;23.316;2023-03-18T09:35:38;94750.69;;;14.07;43.51
9774;BME280;4926;42.670;23.316;2023-03-18T09:38:05;94738.09;;;13.72;43.14
9774;BME280;4926;42.670;23.316;2023-03-18T09:40:34;94744.50;;;13.35;43.18
9774;BME280;4926;42.670;23.316;2023-03-18T09:43:12;94743.56;;;13.04;42.87
9774;BME280;4926;42.670;23.316;2023-03-18T09:45:50;94745.97;;;13.55;42.95
9774;BME280;4926;42.670;23.316;2023-03-18T09:48:51;94732.06;;;14.02;42.49
9774;BME280;4926;42.670;23.316;2023-03-18T09:51:39;94748.88;;;13.31;43.51
9774;BME280;4926;42.670;23.316;2023-03-18T09:54:10;94740.88;;;13.18;43.00
9774;BME280;4926;42.670;23.316;2023-03-18T09:56:38;94741.84;;;12.35;44.11
9774;BME280;4926;42.670;23.316;2023-03-18T09:59:14;94761.25;;;11.90;45.34
9774;BME280;4926;42.670;23.316;2023-03-18T10:01:42;94760.72;;;12.85;44.90
9774;BME280;4926;42.670;23.316;2023-03-18T10:04:18;94748.28;;;13.48;42.96
9774;BME280;4926;42.670;23.316;2023-03-18T10:06:49;94739.47;;;13.83;41.74
9774;BME280;4926;42.670;23.316;2023-03-18T10:09:23;94744.44;;;13.76;42.04
9774;BME280;4926;42.670;23.316;2023-03-18T10:11:58;94721.81;;;14.40;40.53
9774;BME280;4926;42.670;23.316;2023-03-18T10:14:35;94731.34;;;14.10;40.65
9774;BME280;4926;42.670;23.316;2023-03-18T10:17:13;94728.41;;;14.34;40.73
9774;BME280;4926;42.670;23.316;2023-03-18T10:19:47;94722.19;;;13.67;39.25
9774;BME280;4926;42.670;23.316;2023-03-18T10:22:32;94741.69;;;12.13;42.77
9774;BME280;4926;42.670;23.316;2023-03-18T10:25:11;94733.81;;;12.95;40.21
9774;BME280;4926;42.670;23.316;2023-03-18T10:27:50;94727.84;;;13.66;40.50
9774;BME280;4926;42.670;23.316;2023-03-18T10:30:40;94716.28;;;14.67;39.97
9774;BME280;4926;42.670;23.316;2023-03-18T10:33:18;94706.84;;;15.09;38.96
9774;BME280;4926;42.670;23.316;2023-03-18T10:35:55;94687.72;;;15.41;36.30
9774;BME280;4926;42.670;23.316;2023-03-18T10:38:28;94671.31;;;15.51;35.75
9774;BME280;4926;42.670;23.316;2023-03-18T10:40:59;94676.97;;;16.26;36.22
9774;BME280;4926;42.670;23.316;2023-03-18T10:43:29;94678.75;;;15.80;35.78
9774;BME280;4926;42.670;23.316;2023-03-18T10:46:00;94669.75;;;15.58;35.89
9774;BME280;4926;42.670;23.316;2023-03-18T10:48:32;94660.91;;;15.75;35.48
9774;BME280;4926;42.670;23.316;2023-03-18T10:51:08;94678.25;;;15.52;37.05
9774;BME280;4926;42.670;23.316;2023-03-18T10:53:41;94659.94;;;15.54;35.66
9774;BME280;4926;42.670;23.316;2023-03-18T10:56:13;94671.41;;;14.73;36.45
9774;BME280;4926;42.670;23.316;2023-03-18T10:58:41;94668.94;;;15.58;36.36
9774;BME280;4926;42.670;23.316;2023-03-18T11:01:09;94648.88;;;15.64;34.70
9774;BME280;4926;42.670;23.316;2023-03-18T11:03:41;94686.91;;;14.93;38.37
9774;BME280;4926;42.670;23.316;2023-03-18T11:06:16;94686.28;;;14.96;36.92
9774;BME280;4926;42.670;23.316;2023-03-18T11:08:46;94693.09;;;13.52;38.54
9774;BME280;4926;42.670;23.316;2023-03-18T11:11:21;94713.41;;;12.58;41.62
9774;BME280;4926;42.670;23.316;2023-03-18T11:13:52;94722.81;;;11.73;42.97
9774;BME280;4926;42.670;23.316;2023-03-18T11:16:29;94731.50;;;11.22;43.76
9774;BME280;4926;42.670;23.316;2023-03-18T11:18:58;94747.50;;;10.99;44.81
9774;BME280;4926;42.670;23.316;2023-03-18T11:21:33;94739.41;;;10.62;44.43
9774;BME280;4926;42.670;23.316;2023-03-18T11:24:01;94747.31;;;10.04;45.94
9774;BME280;4926;42.670;23.316;2023-03-18T11:26:47;94746.25;;;10.10;45.82
9774;BME280;4926;42.670;23.316;2023-03-18T11:29:21;94741.19;;;10.90;44.58
9774;BME280;4926;42.670;23.316;2023-03-18T11:31:53;94712.66;;;11.56;41.90
9774;BME280;4926;42.670;23.316;2023-03-18T11:34:23;94715.78;;;11.58;40.93
9774;BME280;4926;42.670;23.316;2023-03-18T11:36:56;94699.16;;;12.03;39.63
9774;BME280;4926;42.670;23.316;2023-03-18T11:39:30;94697.47;;;12.07;39.77
9774;BME280;4926;42.670;23.316;2023-03-18T11:41:58;94693.25;;;11.88;39.41
9774;BME280;4926;42.670;23.316;2023-03-18T11:44:32;94694.81;;;11.75;40.19
9774;BME280;4926;42.670;23.316;2023-03-18T11:47:04;94708.97;;;10.91;40.52
9774;BME280;4926;42.670;23.316;2023-03-18T11:49:35;94709.69;;;10.97;41.01
9774;BME280;4926;42.670;23.316;2023-03-18T11:52:20;94705.94;;;11.59;40.45
9774;BME280;4926;42.670;23.316;2023-03-18T11:57:57;94715.25;;;10.53;42.40
9774;BME280;4926;42.670;23.316;2023-03-18T12:00:33;94712.91;;;11.36;40.78
9774;BME280;4926;42.670;23.316;2023-03-18T12:03:31;94710.78;;;12.26;39.62
9774;BME280;4926;42.670;23.316;2023-03-18T12:06:09;94695.59;;;12.54;38.81
9774;BME280;4926;42.670;23.316;2023-03-18T12:08:50;94701.66;;;11.95;39.55
9774;BME280;4926;42.670;23.316;2023-03-18T12:11:38;94700.03;;;12.12;39.70
9774;BME280;4926;42.670;23.316;2023-03-18T12:14:14;94717.97;;;11.38;41.10
9774;BME280;4926;42.670;23.316;2023-03-18T12:16:51;94721.88;;;10.56;42.17
9774;BME280;4926;42.670;23.316;2023-03-18T12:19:46;94737.34;;;10.25;43.25
9774;BME280;4926;42.670;23.316;2023-03-18T12:22:26;94721.50;;;10.91;42.43
9774;BME280;4926;42.670;23.316;2023-03-18T12:25:15;94717.34;;;11.46;42.70
9774;BME280;4926;42.670;23.316;2023-03-18T12:27:52;94708.91;;;11.94;41.48
9774;BME280;4926;42.670;23.316;2023-03-18T12:30:34;94696.31;;;12.13;39.20
9774;BME280;4926;42.670;23.316;2023-03-18T12:33:10;94695.28;;;11.59;39.94
9774;BME280;4926;42.670;23.316;2023-03-18T12:35:48;94713.38;;;11.80;39.51
9774;BME280;4926;42.670;23.316;2023-03-18T12:39:08;94697.94;;;11.96;39.69
9774;BME280;4926;42.670;23.316;2023-03-18T12:41:46;94694.69;;;11.99;39.46
9774;BME280;4926;42.670;23.316;2023-03-18T12:44:27;94677.22;;;12.66;38.21
9774;BME280;4926;42.670;23.316;2023-03-18T12:47:04;94670.06;;;13.29;37.38
9774;BME280;4926;42.670;23.316;2023-03-18T12:49:34;94668.38;;;13.33;37.87
9774;BME280;4926;42.670;23.316;2023-03-18T12:52:07;94671.78;;;13.47;37.72
9774;BME280;4926;42.670;23.316;2023-03-18T12:54:40;94672.34;;;13.58;37.63
9774;BME280;4926;42.670;23.316;2023-03-18T12:57:19;94677.13;;;12.98;38.14
9774;BME280;4926;42.670;23.316;2023-03-18T12:59:53;94671.84;;;11.93;39.34
9774;BME280;4926;42.670;23.316;2023-03-18T13:02:39;94695.22;;;11.45;42.34
9774;BME280;4926;42.670;23.316;2023-03-18T13:05:18;94704.56;;;11.24;40.46
9774;BME280;4926;42.670;23.316;2023-03-18T13:07:52;94697.25;;;10.69;41.12
9774;BME280;4926;42.670;23.316;2023-03-18T13:10:23;94695.94;;;10.66;40.96
9774;BME280;4926;42.670;23.316;2023-03-18T13:12:53;94707.97;;;11.06;41.36
9774;BME280;4926;42.670;23.316;2023-03-18T13:15:27;94697.31;;;11.06;40.52
9774;BME280;4926;42.670;23.316;2023-03-18T13:17:58;94696.00;;;10.61;41.41
9774;BME280;4926;42.670;23.316;2023-03-18T13:20:29;94701.53;;;11.12;40.81
9774;BME280;4926;42.670;23.316;2023-03-18T13:23:12;94684.47;;;11.69;38.86
9774;BME280;4926;42.670;23.316;2023-03-18T13:26:00;94690.09;;;11.49;39.02
9774;BME280;4926;42.670;23.316;2023-03-18T13:28:40;94678.88;;;10.67;39.89
9774;BME280;4926;42.670;23.316;2023-03-18T13:31:18;94698.09;;;10.88;40.49
9774;BME280;4926;42.670;23.316;2023-03-18T13:34:03;94689.97;;;10.74;40.25